sensor_id;sensor_type;location;lat;lon;timestamp;P1;durP1;ratioP1;P2;durP2;ratioP2
18893;SDS011;9579;49.488;8.226;2023-06-10T00:00:09;8.77;;;8.07;;
18893;SDS011;9579;49.488;8.226;2023-06-10T00:02:58;9.23;;;8.52;;
18893;SDS011;9579;49.488;8.226;2023-06-10T00:05:45;9.40;;;8.57;;
18893;SDS011;9579;49.488;8.226;2023-06-10T00:08:33;9.95;;;9.00;;
18893;SDS011;9579;49.488;8.226;2023-06-10T00:11:22;10.05;;;9.20;;
18893;SDS011;9579;49.488;8.226;2023-06-10T00:14:10;9.57;;;8.88;;
18893;SDS011;9579;49.488;8.226;2023-06-10T00:16:57;10.00;;;9.20;;
18893;SDS011;9579;49.488;8.226;2023-06-10T00:19:44;10.68;;;9.80;;
18893;SDS011;9579;49.488;8.226;2023-06-10T00:22:32;10.02;;;9.23;;
18893;SDS011;9579;49.488;8.226;2023-06-10T00:25:20;9.65;;;8.85;;
18893;SDS011;9579;49.488;8.226;2023-06-10T00:28:07;9.52;;;8.82;;
18893;SDS011;9579;49.488;8.226;2023-06-10T00:30:54;9.70;;;8.90;;
18893;SDS011;9579;49.488;8.226;2023-06-10T00:33:42;9.70;;;8.90;;
18893;SDS011;9579;49.488;8.226;2023-06-10T00:36:29;9.90;;;9.00;;
18893;SDS011;9579;49.488;8.226;2023-06-10T00:39:16;9.88;;;9.07;;
18893;SDS011;9579;49.488;8.226;2023-06-10T00:42:05;10.32;;;9.52;;
18893;SDS011;9579;49.488;8.226;2023-06-10T00:44:53;10.43;;;9.52;;
18893;SDS011;9579;49.488;8.226;2023-06-10T00:47:40;10.10;;;9.40;;
18893;SDS011;9579;49.488;8.226;2023-06-10T00:50:27;9.98;;;9.05;;
18893;SDS011;9579;49.488;8.226;2023-06-10T00:53:14;10.52;;;9.73;;
18893;SDS011;9579;49.488;8.226;2023-06-10T00:56:01;11.05;;;10.25;;
18893;SDS011;9579;49.488;8.226;2023-06-10T00:58:50;10.88;;;9.88;;
18893;SDS011;9579;49.488;8.226;2023-06-10T01:01:37;10.10;;;9.40;;
18893;SDS011;9579;49.488;8.226;2023-06-10T01:04:25;10.52;;;9.75;;
18893;SDS011;9579;49.488;8.226;2023-06-10T01:07:14;10.75;;;9.85;;
18893;SDS011;9579;49.488;8.226;2023-06-10T01:10:09;10.77;;;9.90;;
18893;SDS011;9579;49.488;8.226;2023-06-10T01:13:00;10.77;;;9.98;;
18893;SDS011;9579;49.488;8.226;2023-06-10T01:15:51;10.40;;;9.50;;
18893;SDS011;9579;49.488;8.226;2023-06-10T01:18:40;11.05;;;10.15;;
18893;SDS011;9579;49.488;8.226;2023-06-10T05:08:33;9.93;;;8.98;;
18893;SDS011;9579;49.488;8.226;2023-06-10T05:11:20;9.80;;;8.90;;
18893;SDS011;9579;49.488;8.226;2023-06-10T05:14:08;9.98;;;9.07;;
18893;SDS011;9579;49.488;8.226;2023-06-10T05:16:55;9.02;;;8.32;;
18893;SDS011;9579;49.488;8.226;2023-06-10T05:19:42;9.50;;;8.70;;
18893;SDS011;9579;49.488;8.226;2023-06-10T05:22:29;9.48;;;8.70;;
18893;SDS011;9579;49.488;8.226;2023-06-10T05:25:18;8.45;;;7.85;;
18893;SDS011;9579;49.488;8.226;2023-06-10T05:28:05;8.85;;;8.15;;
18893;SDS011;9579;49.488;8.226;2023-06-10T05:30:55;9.63;;;8.63;;
18893;SDS011;9579;49.488;8.226;2023-06-10T05:33:42;9.70;;;8.85;;
18893;SDS011;9579;49.488;8.226;2023-06-10T05:36:29;10.25;;;8.75;;
18893;SDS011;9579;49.488;8.226;2023-06-10T05:39:16;8.85;;;8.10;;
18893;SDS011;9579;49.488;8.226;2023-06-10T05:42:05;9.57;;;8.77;;
18893;SDS011;9579;49.488;8.226;2023-06-10T05:44:53;9.73;;;8.82;;
18893;SDS011;9579;49.488;8.226;2023-06-10T05:47:40;9.48;;;8.57;;
18893;SDS011;9579;49.488;8.226;2023-06-10T05:50:27;9.60;;;8.65;;
18893;SDS011;9579;49.488;8.226;2023-06-10T05:53:14;10.05;;;8.10;;
18893;SDS011;9579;49.488;8.226;2023-06-10T05:56:01;8.85;;;8.02;;
18893;SDS011;9579;49.488;8.226;2023-06-10T05:58:50;9.15;;;8.20;;
18893;SDS011;9579;49.488;8.226;2023-06-10T06:01:37;9.05;;;8.27;;
18893;SDS011;9579;49.488;8.226;2023-06-10T06:04:25;9.18;;;8.35;;
18893;SDS011;9579;49.488;8.226;2023-06-10T06:07:12;9.43;;;8.73;;
18893;SDS011;9579;49.488;8.226;2023-06-10T06:09:59;9.85;;;8.90;;
18893;SDS011;9579;49.488;8.226;2023-06-10T06:12:46;9.57;;;8.68;;
18893;SDS011;9579;49.488;8.226;2023-06-10T06:15:34;9.07;;;8.27;;
18893;SDS011;9579;49.488;8.226;2023-06-10T06:18:21;8.73;;;8.02;;
18893;SDS011;9579;49.488;8.226;2023-06-10T06:21:08;8.85;;;8.15;;
18893;SDS011;9579;49.488;8.226;2023-06-10T06:23:55;9.00;;;8.20;;
18893;SDS011;9579;49.488;8.226;2023-06-10T06:26:43;9.07;;;8.18;;
18893;SDS011;9579;49.488;8.226;2023-06-10T06:29:30;9.45;;;8.38;;
18893;SDS011;9579;49.488;8.226;2023-06-10T06:32:18;8.75;;;8.05;;
18893;SDS011;9579;49.488;8.226;2023-06-10T06:35:07;8.20;;;7.40;;
18893;SDS011;9579;49.488;8.226;2023-06-10T06:37:54;9.93;;;8.18;;
18893;SDS011;9579;49.488;8.226;2023-06-10T06:40:42;8.30;;;7.70;;
18893;SDS011;9579;49.488;8.226;2023-06-10T06:43:29;9.77;;;8.38;;
18893;SDS011;9579;49.488;8.226;2023-06-10T06:46:16;8.07;;;7.47;;
18893;SDS011;9579;49.488;8.226;2023-06-10T06:49:04;8.88;;;8.07;;
18893;SDS011;9579;49.488;8.226;2023-06-10T06:51:51;8.98;;;8.18;;
18893;SDS011;9579;49.488;8.226;2023-06-10T06:54:38;9.73;;;8.73;;
18893;SDS011;9579;49.488;8.226;2023-06-10T06:57:25;8.82;;;8.07;;
18893;SDS011;9579;49.488;8.226;2023-06-10T07:00:13;8.98;;;8.20;;
18893;SDS011;9579;49.488;8.226;2023-06-10T07:03:00;8.98;;;8.07;;
18893;SDS011;9579;49.488;8.226;2023-06-10T07:05:48;9.65;;;8.82;;
18893;SDS011;9579;49.488;8.226;2023-06-10T07:08:35;9.02;;;8.23;;
18893;SDS011;9579;49.488;8.226;2023-06-10T07:11:22;9.07;;;8.32;;
18893;SDS011;9579;49.488;8.226;2023-06-10T07:14:10;9.00;;;8.20;;
18893;SDS011;9579;49.488;8.226;2023-06-10T07:16:57;8.32;;;7.53;;
18893;SDS011;9579;49.488;8.226;2023-06-10T07:19:44;9.02;;;8.25;;
18893;SDS011;9579;49.488;8.226;2023-06-10T07:22:33;7.78;;;7.18;;
18893;SDS011;9579;49.488;8.226;2023-06-10T07:25:20;9.13;;;8.32;;
18893;SDS011;9579;49.488;8.226;2023-06-10T07:28:07;8.32;;;7.65;;
18893;SDS011;9579;49.488;8.226;2023-06-10T07:30:54;7.20;;;6.55;;
18893;SDS011;9579;49.488;8.226;2023-06-10T07:33:41;8.82;;;8.02;;
18893;SDS011;9579;49.488;8.226;2023-06-10T07:36:28;8.57;;;7.85;;
18893;SDS011;9579;49.488;8.226;2023-06-10T07:39:17;8.05;;;7.40;;
18893;SDS011;9579;49.488;8.226;2023-06-10T07:42:04;7.70;;;7.10;;
18893;SDS011;9579;49.488;8.226;2023-06-10T07:44:52;7.57;;;6.55;;
18893;SDS011;9579;49.488;8.226;2023-06-10T07:47:39;13.23;;;7.22;;
18893;SDS011;9579;49.488;8.226;2023-06-10T07:50:26;6.93;;;6.22;;
18893;SDS011;9579;49.488;8.226;2023-06-10T07:53:13;7.22;;;6.63;;
18893;SDS011;9579;49.488;8.226;2023-06-10T07:56:01;7.97;;;7.35;;
18893;SDS011;9579;49.488;8.226;2023-06-10T07:58:48;7.28;;;6.78;;
18893;SDS011;9579;49.488;8.226;2023-06-10T08:01:35;7.22;;;6.53;;
18893;SDS011;9579;49.488;8.226;2023-06-10T08:04:24;7.00;;;6.30;;
18893;SDS011;9579;49.488;8.226;2023-06-10T08:07:11;7.65;;;6.25;;
18893;SDS011;9579;49.488;8.226;2023-06-10T08:09:58;7.70;;;7.10;;
18893;SDS011;9579;49.488;8.226;2023-06-10T08:12:47;6.65;;;5.90;;
18893;SDS011;9579;49.488;8.226;2023-06-10T08:15:34;6.82;;;6.22;;
18893;SDS011;9579;49.488;8.226;2023-06-10T08:18:21;6.43;;;5.82;;
18893;SDS011;9579;49.488;8.226;2023-06-10T08:21:08;5.95;;;5.30;;
18893;SDS011;9579;49.488;8.226;2023-06-10T08:23:55;5.57;;;5.18;;
18893;SDS011;9579;49.488;8.226;2023-06-10T08:26:42;5.90;;;5.40;;
18893;SDS011;9579;49.488;8.226;2023-06-10T08:29:30;7.03;;;6.20;;
18893;SDS011;9579;49.488;8.226;2023-06-10T08:32:17;7.32;;;6.35;;
18893;SDS011;9579;49.488;8.226;2023-06-10T08:35:04;6.38;;;5.82;;
18893;SDS011;9579;49.488;8.226;2023-06-10T08:37:51;7.00;;;6.30;;
18893;SDS011;9579;49.488;8.226;2023-06-10T08:40:38;6.47;;;5.97;;
18893;SDS011;9579;49.488;8.226;2023-06-10T08:43:32;6.55;;;5.97;;
18893;SDS011;9579;49.488;8.226;2023-06-10T08:46:21;6.38;;;5.82;;
18893;SDS011;9579;49.488;8.226;2023-06-10T08:49:08;6.72;;;6.13;;
18893;SDS011;9579;49.488;8.226;2023-06-10T08:51:58;6.30;;;5.90;;
18893;SDS011;9579;49.488;8.226;2023-06-10T08:54:50;6.35;;;5.95;;
18893;SDS011;9579;49.488;8.226;2023-06-10T08:57:41;7.28;;;6.50;;
18893;SDS011;9579;49.488;8.226;2023-06-10T09:00:30;6.60;;;6.10;;
18893;SDS011;9579;49.488;8.226;2023-06-10T09:03:19;7.00;;;6.40;;
18893;SDS011;9579;49.488;8.226;2023-06-10T09:06:07;7.47;;;6.85;;
18893;SDS011;9579;49.488;8.226;2023-06-10T09:08:55;6.70;;;6.20;;
18893;SDS011;9579;49.488;8.226;2023-06-10T09:11:43;7.32;;;6.65;;
18893;SDS011;9579;49.488;8.226;2023-06-10T09:14:30;7.07;;;6.50;;
18893;SDS011;9579;49.488;8.226;2023-06-10T09:17:17;7.50;;;6.80;;
18893;SDS011;9579;49.488;8.226;2023-06-10T09:20:06;7.95;;;7.22;;
18893;SDS011;9579;49.488;8.226;2023-06-10T09:22:54;6.25;;;5.65;;
18893;SDS011;9579;49.488;8.226;2023-06-10T09:25:41;7.00;;;6.50;;
18893;SDS011;9579;49.488;8.226;2023-06-10T09:28:27;6.75;;;6.18;;
18893;SDS011;9579;49.488;8.226;2023-06-10T09:31:14;7.22;;;6.55;;
18893;SDS011;9579;49.488;8.226;2023-06-10T09:34:07;6.75;;;6.05;;
18893;SDS011;9579;49.488;8.226;2023-06-10T09:36:55;7.10;;;6.50;;
18893;SDS011;9579;49.488;8.226;2023-06-10T09:39:42;6.60;;;6.10;;
18893;SDS011;9579;49.488;8.226;2023-06-10T09:42:32;7.10;;;6.50;;
18893;SDS011;9579;49.488;8.226;2023-06-10T09:45:20;6.97;;;6.38;;
18893;SDS011;9579;49.488;8.226;2023-06-10T09:48:08;7.03;;;6.43;;
18893;SDS011;9579;49.488;8.226;2023-06-10T09:50:56;6.78;;;6.13;;
18893;SDS011;9579;49.488;8.226;2023-06-10T09:53:44;6.70;;;6.20;;
18893;SDS011;9579;49.488;8.226;2023-06-10T09:56:34;6.90;;;6.30;;
18893;SDS011;9579;49.488;8.226;2023-06-10T09:59:28;6.85;;;6.13;;
18893;SDS011;9579;49.488;8.226;2023-06-10T10:02:17;7.18;;;6.57;;
18893;SDS011;9579;49.488;8.226;2023-06-10T10:05:04;7.55;;;6.72;;
18893;SDS011;9579;49.488;8.226;2023-06-10T10:07:52;6.97;;;6.47;;
18893;SDS011;9579;49.488;8.226;2023-06-10T10:10:40;7.20;;;6.53;;
18893;SDS011;9579;49.488;8.226;2023-06-10T10:13:27;7.00;;;6.50;;
18893;SDS011;9579;49.488;8.226;2023-06-10T10:16:16;7.18;;;6.63;;
18893;SDS011;9579;49.488;8.226;2023-06-10T10:19:07;6.55;;;6.07;;
18893;SDS011;9579;49.488;8.226;2023-06-10T10:21:59;6.93;;;6.32;;
18893;SDS011;9579;49.488;8.226;2023-06-10T10:24:51;8.02;;;6.97;;
18893;SDS011;9579;49.488;8.226;2023-06-10T10:27:44;6.95;;;6.38;;
18893;SDS011;9579;49.488;8.226;2023-06-10T10:30:37;7.20;;;6.70;;
18893;SDS011;9579;49.488;8.226;2023-06-10T10:33:27;7.30;;;6.80;;
18893;SDS011;9579;49.488;8.226;2023-06-10T10:36:19;6.95;;;6.35;;
18893;SDS011;9579;49.488;8.226;2023-06-10T10:39:06;7.35;;;6.57;;
18893;SDS011;9579;49.488;8.226;2023-06-10T10:41:53;7.40;;;6.80;;
18893;SDS011;9579;49.488;8.226;2023-06-10T10:44:43;7.28;;;6.78;;
18893;SDS011;9579;49.488;8.226;2023-06-10T10:47:31;7.85;;;7.10;;
18893;SDS011;9579;49.488;8.226;2023-06-10T10:50:21;7.00;;;6.40;;
18893;SDS011;9579;49.488;8.226;2023-06-10T10:53:08;8.60;;;6.90;;
18893;SDS011;9579;49.488;8.226;2023-06-10T10:55:58;7.32;;;6.70;;
18893;SDS011;9579;49.488;8.226;2023-06-10T10:59:01;6.85;;;6.35;;
18893;SDS011;9579;49.488;8.226;2023-06-10T11:01:51;7.47;;;6.88;;
18893;SDS011;9579;49.488;8.226;2023-06-10T11:04:42;6.40;;;5.80;;
18893;SDS011;9579;49.488;8.226;2023-06-10T11:07:31;7.38;;;6.78;;
18893;SDS011;9579;49.488;8.226;2023-06-10T11:10:20;7.40;;;6.80;;
18893;SDS011;9579;49.488;8.226;2023-06-10T11:13:18;7.10;;;6.50;;
18893;SDS011;9579;49.488;8.226;2023-06-10T11:16:06;7.45;;;6.95;;
18893;SDS011;9579;49.488;8.226;2023-06-10T11:18:57;7.50;;;6.90;;
18893;SDS011;9579;49.488;8.226;2023-06-10T11:21:59;6.28;;;5.78;;
18893;SDS011;9579;49.488;8.226;2023-06-10T11:24:47;5.68;;;5.32;;
18893;SDS011;9579;49.488;8.226;2023-06-10T11:27:37;6.55;;;5.45;;
18893;SDS011;9579;49.488;8.226;2023-06-10T11:30:26;5.80;;;4.95;;
18893;SDS011;9579;49.488;8.226;2023-06-10T11:33:14;6.40;;;5.38;;
18893;SDS011;9579;49.488;8.226;2023-06-10T11:36:07;9.38;;;5.10;;
18893;SDS011;9579;49.488;8.226;2023-06-10T11:38:56;5.40;;;5.00;;
18893;SDS011;9579;49.488;8.226;2023-06-10T11:41:45;6.57;;;5.18;;
18893;SDS011;9579;49.488;8.226;2023-06-10T11:44:32;4.72;;;4.43;;
18893;SDS011;9579;49.488;8.226;2023-06-10T11:47:23;5.25;;;4.72;;
18893;SDS011;9579;49.488;8.226;2023-06-10T11:50:10;6.25;;;4.60;;
18893;SDS011;9579;49.488;8.226;2023-06-10T11:52:58;6.28;;;4.72;;
18893;SDS011;9579;49.488;8.226;2023-06-10T11:55:45;5.00;;;4.60;;
18893;SDS011;9579;49.488;8.226;2023-06-10T11:58:33;4.90;;;4.50;;
18893;SDS011;9579;49.488;8.226;2023-06-10T12:01:21;4.65;;;4.35;;
18893;SDS011;9579;49.488;8.226;2023-06-10T12:04:09;6.05;;;4.45;;
18893;SDS011;9579;49.488;8.226;2023-06-10T12:06:58;4.90;;;4.50;;
18893;SDS011;9579;49.488;8.226;2023-06-10T12:09:46;4.93;;;4.60;;
18893;SDS011;9579;49.488;8.226;2023-06-10T12:12:34;4.85;;;4.40;;
18893;SDS011;9579;49.488;8.226;2023-06-10T12:15:23;5.80;;;4.60;;
18893;SDS011;9579;49.488;8.226;2023-06-10T12:18:15;4.90;;;4.50;;
18893;SDS011;9579;49.488;8.226;2023-06-10T12:21:03;4.78;;;4.38;;
18893;SDS011;9579;49.488;8.226;2023-06-10T12:24:04;6.13;;;4.70;;
18893;SDS011;9579;49.488;8.226;2023-06-10T12:26:54;5.15;;;4.75;;
18893;SDS011;9579;49.488;8.226;2023-06-10T12:29:50;4.80;;;4.50;;
18893;SDS011;9579;49.488;8.226;2023-06-10T12:32:39;5.30;;;4.78;;
18893;SDS011;9579;49.488;8.226;2023-06-10T12:35:28;4.53;;;4.22;;
18893;SDS011;9579;49.488;8.226;2023-06-10T12:38:18;4.90;;;4.50;;
18893;SDS011;9579;49.488;8.226;2023-06-10T12:41:09;4.75;;;4.35;;
18893;SDS011;9579;49.488;8.226;2023-06-10T12:43:58;4.75;;;4.45;;
18893;SDS011;9579;49.488;8.226;2023-06-10T12:46:45;4.63;;;4.22;;
18893;SDS011;9579;49.488;8.226;2023-06-10T12:49:40;4.75;;;4.40;;
18893;SDS011;9579;49.488;8.226;2023-06-10T12:52:27;5.03;;;4.50;;
18893;SDS011;9579;49.488;8.226;2023-06-10T12:55:14;4.43;;;4.13;;
18893;SDS011;9579;49.488;8.226;2023-06-10T12:58:02;4.80;;;4.38;;
18893;SDS011;9579;49.488;8.226;2023-06-10T13:00:50;4.70;;;4.40;;
18893;SDS011;9579;49.488;8.226;2023-06-10T13:03:38;4.80;;;4.30;;
18893;SDS011;9579;49.488;8.226;2023-06-10T13:06:25;4.85;;;4.43;;
18893;SDS011;9579;49.488;8.226;2023-06-10T13:09:13;5.13;;;4.57;;
18893;SDS011;9579;49.488;8.226;2023-06-10T13:12:00;5.72;;;4.93;;
18893;SDS011;9579;49.488;8.226;2023-06-10T13:14:47;4.32;;;4.03;;
18893;SDS011;9579;49.488;8.226;2023-06-10T13:17:36;5.00;;;4.60;;
18893;SDS011;9579;49.488;8.226;2023-06-10T13:20:23;5.00;;;4.70;;
18893;SDS011;9579;49.488;8.226;2023-06-10T13:23:11;4.72;;;4.32;;
18893;SDS011;9579;49.488;8.226;2023-06-10T13:25:58;4.75;;;4.45;;
18893;SDS011;9579;49.488;8.226;2023-06-10T13:28:47;5.68;;;5.18;;
18893;SDS011;9579;49.488;8.226;2023-06-10T13:31:34;5.07;;;4.68;;
18893;SDS011;9579;49.488;8.226;2023-06-10T13:34:23;4.97;;;4.45;;
18893;SDS011;9579;49.488;8.226;2023-06-10T13:37:10;5.30;;;4.80;;
18893;SDS011;9579;49.488;8.226;2023-06-10T13:39:58;5.13;;;4.63;;
18893;SDS011;9579;49.488;8.226;2023-06-10T13:42:45;4.90;;;4.50;;
18893;SDS011;9579;49.488;8.226;2023-06-10T13:45:36;4.60;;;4.28;;
18893;SDS011;9579;49.488;8.226;2023-06-10T13:48:22;5.05;;;4.65;;
18893;SDS011;9579;49.488;8.226;2023-06-10T13:51:11;4.63;;;4.22;;
18893;SDS011;9579;49.488;8.226;2023-06-10T13:53:58;5.00;;;4.60;;
18893;SDS011;9579;49.488;8.226;2023-06-10T13:56:45;4.93;;;4.43;;
18893;SDS011;9579;49.488;8.226;2023-06-10T13:59:32;4.93;;;4.57;;
18893;SDS011;9579;49.488;8.226;2023-06-10T14:02:19;5.15;;;4.75;;
18893;SDS011;9579;49.488;8.226;2023-06-10T14:05:07;4.55;;;4.15;;
18893;SDS011;9579;49.488;8.226;2023-06-10T14:07:55;4.90;;;4.60;;
18893;SDS011;9579;49.488;8.226;2023-06-10T14:10:42;5.00;;;4.50;;
18893;SDS011;9579;49.488;8.226;2023-06-10T14:13:29;5.60;;;4.50;;
18893;SDS011;9579;49.488;8.226;2023-06-10T14:16:16;5.03;;;4.53;;
18893;SDS011;9579;49.488;8.226;2023-06-10T14:19:04;4.50;;;4.20;;
18893;SDS011;9579;49.488;8.226;2023-06-10T14:21:51;4.82;;;4.40;;
18893;SDS011;9579;49.488;8.226;2023-06-10T14:24:40;4.18;;;3.95;;
18893;SDS011;9579;49.488;8.226;2023-06-10T14:27:27;4.75;;;4.45;;
18893;SDS011;9579;49.488;8.226;2023-06-10T14:30:14;5.20;;;4.80;;
18893;SDS011;9579;49.488;8.226;2023-06-10T14:33:01;5.22;;;4.50;;
18893;SDS011;9579;49.488;8.226;2023-06-10T14:35:48;4.90;;;4.50;;
18893;SDS011;9579;49.488;8.226;2023-06-10T14:38:35;5.45;;;4.95;;
18893;SDS011;9579;49.488;8.226;2023-06-10T14:41:24;4.80;;;4.40;;
18893;SDS011;9579;49.488;8.226;2023-06-10T14:44:11;4.85;;;4.55;;
18893;SDS011;9579;49.488;8.226;2023-06-10T14:46:58;5.35;;;4.85;;
18893;SDS011;9579;49.488;8.226;2023-06-10T14:49:45;5.20;;;4.80;;
18893;SDS011;9579;49.488;8.226;2023-06-10T14:52:32;6.10;;;5.38;;
18893;SDS011;9579;49.488;8.226;2023-06-10T14:55:19;5.25;;;4.85;;
18893;SDS011;9579;49.488;8.226;2023-06-10T14:58:09;4.80;;;4.47;;
18893;SDS011;9579;49.488;8.226;2023-06-10T15:00:56;4.95;;;4.55;;
18893;SDS011;9579;49.488;8.226;2023-06-10T15:03:43;4.57;;;4.28;;
18893;SDS011;9579;49.488;8.226;2023-06-10T15:06:30;4.90;;;4.50;;
18893;SDS011;9579;49.488;8.226;2023-06-10T15:09:17;4.85;;;4.50;;
18893;SDS011;9579;49.488;8.226;2023-06-10T15:12:04;4.65;;;4.35;;
18893;SDS011;9579;49.488;8.226;2023-06-10T15:14:53;4.40;;;4.00;;
18893;SDS011;9579;49.488;8.226;2023-06-10T15:17:40;4.90;;;4.50;;
18893;SDS011;9579;49.488;8.226;2023-06-10T15:20:27;6.25;;;4.78;;
18893;SDS011;9579;49.488;8.226;2023-06-10T15:23:14;4.95;;;4.47;;
18893;SDS011;9579;49.488;8.226;2023-06-10T15:26:01;4.50;;;4.18;;
18893;SDS011;9579;49.488;8.226;2023-06-10T15:28:48;4.82;;;4.53;;
18893;SDS011;9579;49.488;8.226;2023-06-10T15:31:36;4.53;;;4.13;;
18893;SDS011;9579;49.488;8.226;2023-06-10T15:34:23;4.70;;;4.28;;
18893;SDS011;9579;49.488;8.226;2023-06-10T15:37:10;5.05;;;4.55;;
18893;SDS011;9579;49.488;8.226;2023-06-10T15:39:57;4.75;;;4.20;;
18893;SDS011;9579;49.488;8.226;2023-06-10T15:42:44;4.70;;;4.30;;
18893;SDS011;9579;49.488;8.226;2023-06-10T15:45:31;4.70;;;4.40;;
18893;SDS011;9579;49.488;8.226;2023-06-10T15:48:20;6.57;;;4.97;;
18893;SDS011;9579;49.488;8.226;2023-06-10T15:51:07;4.93;;;4.47;;
18893;SDS011;9579;49.488;8.226;2023-06-10T15:53:54;5.10;;;4.45;;
18893;SDS011;9579;49.488;8.226;2023-06-10T15:56:41;5.97;;;4.43;;
18893;SDS011;9579;49.488;8.226;2023-06-10T15:59:28;4.68;;;4.38;;
18893;SDS011;9579;49.488;8.226;2023-06-10T16:02:15;4.32;;;4.05;;
18893;SDS011;9579;49.488;8.226;2023-06-10T16:05:04;5.22;;;4.55;;
18893;SDS011;9579;49.488;8.226;2023-06-10T16:07:51;4.43;;;4.03;;
18893;SDS011;9579;49.488;8.226;2023-06-10T16:10:38;4.70;;;4.25;;
18893;SDS011;9579;49.488;8.226;2023-06-10T16:13:25;5.10;;;4.78;;
18893;SDS011;9579;49.488;8.226;2023-06-10T16:16:12;6.38;;;4.07;;
18893;SDS011;9579;49.488;8.226;2023-06-10T16:18:59;4.93;;;4.63;;
18893;SDS011;9579;49.488;8.226;2023-06-10T16:21:47;4.80;;;4.40;;
18893;SDS011;9579;49.488;8.226;2023-06-10T16:24:35;4.47;;;4.18;;
18893;SDS011;9579;49.488;8.226;2023-06-10T16:27:22;4.90;;;4.40;;
18893;SDS011;9579;49.488;8.226;2023-06-10T16:30:10;4.68;;;4.28;;
18893;SDS011;9579;49.488;8.226;2023-06-10T16:32:58;4.38;;;4.07;;
18893;SDS011;9579;49.488;8.226;2023-06-10T16:35:45;4.68;;;4.28;;
18893;SDS011;9579;49.488;8.226;2023-06-10T16:38:34;5.00;;;4.55;;
18893;SDS011;9579;49.488;8.226;2023-06-10T16:41:21;6.32;;;5.00;;
18893;SDS011;9579;49.488;8.226;2023-06-10T16:44:08;5.22;;;4.82;;
18893;SDS011;9579;49.488;8.226;2023-06-10T16:46:55;5.60;;;5.10;;
18893;SDS011;9579;49.488;8.226;2023-06-10T16:49:42;5.47;;;4.97;;
18893;SDS011;9579;49.488;8.226;2023-06-10T16:52:29;5.43;;;4.90;;
18893;SDS011;9579;49.488;8.226;2023-06-10T16:55:17;5.47;;;5.00;;
18893;SDS011;9579;49.488;8.226;2023-06-10T16:58:04;5.35;;;4.95;;
18893;SDS011;9579;49.488;8.226;2023-06-10T17:00:51;5.68;;;5.07;;
18893;SDS011;9579;49.488;8.226;2023-06-10T17:03:39;5.47;;;5.07;;
18893;SDS011;9579;49.488;8.226;2023-06-10T17:06:26;5.40;;;5.00;;
18893;SDS011;9579;49.488;8.226;2023-06-10T17:09:13;4.93;;;4.53;;
18893;SDS011;9579;49.488;8.226;2023-06-10T17:12:01;5.57;;;4.82;;
18893;SDS011;9579;49.488;8.226;2023-06-10T17:14:49;5.30;;;4.90;;
18893;SDS011;9579;49.488;8.226;2023-06-10T17:17:35;5.63;;;4.70;;
18893;SDS011;9579;49.488;8.226;2023-06-10T17:20:22;5.50;;;5.05;;
18893;SDS011;9579;49.488;8.226;2023-06-10T17:23:09;5.40;;;4.93;;
18893;SDS011;9579;49.488;8.226;2023-06-10T17:25:56;7.20;;;5.32;;
18893;SDS011;9579;49.488;8.226;2023-06-10T17:28:45;5.35;;;4.95;;
18893;SDS011;9579;49.488;8.226;2023-06-10T17:31:32;5.82;;;5.25;;
18893;SDS011;9579;49.488;8.226;2023-06-10T17:34:19;4.97;;;4.68;;
18893;SDS011;9579;49.488;8.226;2023-06-10T17:37:06;5.45;;;5.05;;
18893;SDS011;9579;49.488;8.226;2023-06-10T17:39:53;5.55;;;5.05;;
18893;SDS011;9579;49.488;8.226;2023-06-10T17:42:40;5.55;;;5.03;;
18893;SDS011;9579;49.488;8.226;2023-06-10T17:45:28;5.82;;;5.32;;
18893;SDS011;9579;49.488;8.226;2023-06-10T17:48:15;5.60;;;5.18;;
18893;SDS011;9579;49.488;8.226;2023-06-10T17:51:02;5.53;;;5.03;;
18893;SDS011;9579;49.488;8.226;2023-06-10T17:53:49;6.38;;;5.75;;
18893;SDS011;9579;49.488;8.226;2023-06-10T17:56:36;5.78;;;5.30;;
18893;SDS011;9579;49.488;8.226;2023-06-10T17:59:23;6.38;;;5.47;;
18893;SDS011;9579;49.488;8.226;2023-06-10T18:02:12;6.68;;;4.90;;
18893;SDS011;9579;49.488;8.226;2023-06-10T18:04:59;5.05;;;4.65;;
18893;SDS011;9579;49.488;8.226;2023-06-10T18:07:46;5.30;;;4.80;;
18893;SDS011;9579;49.488;8.226;2023-06-10T18:10:33;5.10;;;4.65;;
18893;SDS011;9579;49.488;8.226;2023-06-10T18:13:20;4.93;;;4.55;;
18893;SDS011;9579;49.488;8.226;2023-06-10T18:16:07;5.38;;;4.88;;
18893;SDS011;9579;49.488;8.226;2023-06-10T18:18:55;5.40;;;5.00;;
18893;SDS011;9579;49.488;8.226;2023-06-10T18:21:42;5.15;;;4.75;;
18893;SDS011;9579;49.488;8.226;2023-06-10T18:24:29;5.43;;;4.93;;
18893;SDS011;9579;49.488;8.226;2023-06-10T18:27:16;5.22;;;4.82;;
18893;SDS011;9579;49.488;8.226;2023-06-10T18:30:03;5.28;;;4.50;;
18893;SDS011;9579;49.488;8.226;2023-06-10T18:32:51;5.47;;;5.07;;
18893;SDS011;9579;49.488;8.226;2023-06-10T18:35:39;5.15;;;4.65;;
18893;SDS011;9579;49.488;8.226;2023-06-10T18:38:26;5.28;;;4.78;;
18893;SDS011;9579;49.488;8.226;2023-06-10T18:41:13;5.63;;;5.20;;
18893;SDS011;9579;49.488;8.226;2023-06-10T18:44:00;5.20;;;4.80;;
18893;SDS011;9579;49.488;8.226;2023-06-10T18:46:47;5.10;;;4.70;;
18893;SDS011;9579;49.488;8.226;2023-06-10T18:49:34;5.40;;;4.90;;
18893;SDS011;9579;49.488;8.226;2023-06-10T18:52:23;5.57;;;4.72;;
18893;SDS011;9579;49.488;8.226;2023-06-10T18:55:10;5.35;;;4.88;;
18893;SDS011;9579;49.488;8.226;2023-06-10T18:57:57;5.30;;;4.90;;
18893;SDS011;9579;49.488;8.226;2023-06-10T19:00:44;5.15;;;4.75;;
18893;SDS011;9579;49.488;8.226;2023-06-10T19:03:31;6.68;;;5.13;;
18893;SDS011;9579;49.488;8.226;2023-06-10T19:06:18;5.32;;;4.82;;
18893;SDS011;9579;49.488;8.226;2023-06-10T19:09:07;5.57;;;5.10;;
18893;SDS011;9579;49.488;8.226;2023-06-10T19:11:54;5.00;;;4.70;;
18893;SDS011;9579;49.488;8.226;2023-06-10T19:14:41;5.00;;;4.60;;
18893;SDS011;9579;49.488;8.226;2023-06-10T19:17:28;4.93;;;4.45;;
18893;SDS011;9579;49.488;8.226;2023-06-10T19:20:15;5.05;;;4.72;;
18893;SDS011;9579;49.488;8.226;2023-06-10T19:23:02;5.05;;;4.68;;
18893;SDS011;9579;49.488;8.226;2023-06-10T19:25:50;4.75;;;4.35;;
18893;SDS011;9579;49.488;8.226;2023-06-10T19:28:37;5.25;;;4.68;;
18893;SDS011;9579;49.488;8.226;2023-06-10T19:31:25;6.03;;;4.40;;
18893;SDS011;9579;49.488;8.226;2023-06-10T19:34:12;4.93;;;4.63;;
18893;SDS011;9579;49.488;8.226;2023-06-10T19:36:59;4.93;;;4.53;;
18893;SDS011;9579;49.488;8.226;2023-06-10T19:39:46;4.85;;;4.45;;
18893;SDS011;9579;49.488;8.226;2023-06-10T19:42:34;4.45;;;4.15;;
18893;SDS011;9579;49.488;8.226;2023-06-10T19:45:22;4.53;;;4.13;;
18893;SDS011;9579;49.488;8.226;2023-06-10T19:48:09;4.88;;;4.47;;
18893;SDS011;9579;49.488;8.226;2023-06-10T19:50:58;5.00;;;4.60;;
18893;SDS011;9579;49.488;8.226;2023-06-10T19:53:45;6.53;;;4.65;;
18893;SDS011;9579;49.488;8.226;2023-06-10T19:56:32;5.10;;;4.78;;
18893;SDS011;9579;49.488;8.226;2023-06-10T19:59:21;5.45;;;4.82;;
18893;SDS011;9579;49.488;8.226;2023-06-10T20:02:08;4.80;;;4.40;;
18893;SDS011;9579;49.488;8.226;2023-06-10T20:04:55;5.10;;;4.70;;
18893;SDS011;9579;49.488;8.226;2023-06-10T20:07:42;4.40;;;4.10;;
18893;SDS011;9579;49.488;8.226;2023-06-10T20:10:29;4.72;;;4.32;;
18893;SDS011;9579;49.488;8.226;2023-06-10T20:13:16;5.07;;;4.43;;
18893;SDS011;9579;49.488;8.226;2023-06-10T20:16:05;4.80;;;4.40;;
18893;SDS011;9579;49.488;8.226;2023-06-10T20:18:52;4.70;;;4.30;;
18893;SDS011;9579;49.488;8.226;2023-06-10T20:21:39;4.93;;;4.53;;
18893;SDS011;9579;49.488;8.226;2023-06-10T20:24:26;5.30;;;4.90;;
18893;SDS011;9579;49.488;8.226;2023-06-10T20:27:13;5.40;;;5.00;;
18893;SDS011;9579;49.488;8.226;2023-06-10T20:30:00;5.22;;;4.90;;
18893;SDS011;9579;49.488;8.226;2023-06-10T20:32:49;5.20;;;4.70;;
18893;SDS011;9579;49.488;8.226;2023-06-10T20:35:37;5.05;;;4.65;;
18893;SDS011;9579;49.488;8.226;2023-06-10T20:38:24;5.15;;;4.75;;
18893;SDS011;9579;49.488;8.226;2023-06-10T20:41:11;4.63;;;4.22;;
18893;SDS011;9579;49.488;8.226;2023-06-10T20:43:58;4.82;;;4.40;;
18893;SDS011;9579;49.488;8.226;2023-06-10T20:46:45;5.93;;;4.78;;
18893;SDS011;9579;49.488;8.226;2023-06-10T20:49:34;5.03;;;4.63;;
18893;SDS011;9579;49.488;8.226;2023-06-10T20:52:21;5.10;;;4.80;;